YPG weather

Southport Airport
Portage la Prairie, Manitoba, Canada

Public forecast

Using degrees Celsius for public forecast. Weather courtesy of forecast.io.

METAR (pilot weather report)

Retrieved 2019/05/21 12:00 UTC (14 minutes ago):

CYPG 211200Z 11003KT 15SM FEW240 05/M00 A3013 RMK CI1 SLP208

TAF (pilot weather forecast)

Retrieved 2019/05/21 12:18 UTC (0 seconds ago):

TAF CYPG 211215Z 2112/2124 11005KT P6SM FEW240 BECMG 2116/2118 09012KT BKN220 RMK NXT FCST BY 211800Z